Terminal Aerodrome Forecast
Issued by NWS St Louis, MO

Home | Current Version | Previous Version | Graphics & Text | Print | Product List | Glossary On
Versions: 1 2 3 4 5 6 7 8 9 10 11 12 13 14 15 16 17 18 19 20 21 22 23 24 25 26
865
FTUS43 KLSX 260530
TAFCOU
TAF
KCOU 260530Z 2606/2706 17005KT P6SM FEW200
     FM261400 20010KT P6SM BKN120
     FM261700 21012G20KT P6SM OVC080
     FM262200 21010KT P6SM SCT070 OVC140
     FM270000 19006KT P6SM OVC040=

USA.gov is the U.S. government's official web portal to all federal, state and local government web resources and services.